createdAt,value
2024-02-13T00:00:49.340Z,16.60
2024-02-13T00:01:49.263Z,13.20
2024-02-13T00:02:49.465Z,19.10
2024-02-13T00:03:49.400Z,16.80
2024-02-13T00:04:49.235Z,18.90
2024-02-13T00:05:49.273Z,21.40
2024-02-13T00:06:49.210Z,19.30
2024-02-13T00:07:49.206Z,23.40
2024-02-13T00:08:49.353Z,19.40
2024-02-13T00:09:49.162Z,15.90
2024-02-13T00:10:49.161Z,19.00
2024-02-13T00:11:49.182Z,19.20
2024-02-13T00:12:49.138Z,17.70
2024-02-13T00:13:49.124Z,21.40
2024-02-13T00:14:49.150Z,22.40
2024-02-13T00:15:49.102Z,20.00
2024-02-13T00:16:49.101Z,20.30
2024-02-13T00:17:49.185Z,19.80
2024-02-13T00:18:49.233Z,21.60
2024-02-13T00:19:49.110Z,23.20
2024-02-13T00:20:49.127Z,24.90
2024-02-13T00:21:49.004Z,20.10
2024-02-13T00:22:49.065Z,21.70
2024-02-13T00:23:49.185Z,19.80
2024-02-13T00:24:48.987Z,23.00
2024-02-13T00:25:48.989Z,20.90
2024-02-13T00:26:48.998Z,22.30
2024-02-13T00:27:48.949Z,21.80
2024-02-13T00:28:48.932Z,27.00
2024-02-13T00:29:48.975Z,23.70
2024-02-13T00:30:48.904Z,19.10
2024-02-13T00:31:48.916Z,23.20
2024-02-13T00:32:48.948Z,23.40
2024-02-13T00:33:49.012Z,28.10
2024-02-13T00:34:48.905Z,31.40
2024-02-13T00:35:48.939Z,27.10
2024-02-13T00:36:48.848Z,25.30
2024-02-13T00:37:48.824Z,23.70
2024-02-13T00:38:48.910Z,28.40
2024-02-13T00:39:48.814Z,27.20
2024-02-13T00:40:48.783Z,22.00
2024-02-13T00:41:49.048Z,29.50
2024-02-13T00:42:48.745Z,29.30
2024-02-13T00:43:49.455Z,32.20
2024-02-13T00:44:48.772Z,25.90
2024-02-13T00:45:48.862Z,28.10
2024-02-13T00:46:48.757Z,35.80
2024-02-13T00:47:48.831Z,27.50
2024-02-13T00:48:48.836Z,24.50
2024-02-13T00:49:48.708Z,26.60
2024-02-13T00:50:48.769Z,31.60
2024-02-13T00:51:48.693Z,30.10
2024-02-13T00:52:48.671Z,26.70
2024-02-13T00:53:48.772Z,29.80
2024-02-13T00:54:48.695Z,26.60
2024-02-13T00:55:48.601Z,31.80
2024-02-13T00:56:48.742Z,32.00
2024-02-13T00:57:48.655Z,31.40
2024-02-13T00:58:48.680Z,28.60
2024-02-13T00:59:48.627Z,31.50
2024-02-13T01:00:48.698Z,27.00
2024-02-13T01:01:48.532Z,32.90
2024-02-13T01:02:48.648Z,29.70
2024-02-13T01:03:48.525Z,25.50
2024-02-13T01:04:48.661Z,31.70
2024-02-13T01:05:48.502Z,26.00
2024-02-13T01:06:48.525Z,28.20
2024-02-13T01:07:48.441Z,36.50
2024-02-13T01:08:48.464Z,30.70
2024-02-13T01:09:48.412Z,28.30
2024-02-13T01:10:48.411Z,24.60
2024-02-13T01:11:48.518Z,27.00
2024-02-13T01:12:48.388Z,29.70
2024-02-13T01:13:48.359Z,31.60
2024-02-13T01:14:48.394Z,32.20
2024-02-13T01:15:48.358Z,34.20
2024-02-13T01:16:48.342Z,35.50
2024-02-13T01:17:48.446Z,33.10
2024-02-13T01:18:48.384Z,37.00
2024-02-13T01:19:48.395Z,38.20
2024-02-13T01:20:48.337Z,31.70
2024-02-13T01:21:48.270Z,22.50
2024-02-13T01:22:48.261Z,31.50
2024-02-13T01:23:48.319Z,27.80
2024-02-13T01:24:48.237Z,32.50
2024-02-13T01:25:48.218Z,23.30
2024-02-13T01:26:48.305Z,32.80
2024-02-13T01:27:48.197Z,37.10
2024-02-13T01:28:48.196Z,34.10
2024-02-13T01:29:48.227Z,28.00
2024-02-13T01:30:48.169Z,28.40
2024-02-13T01:31:48.160Z,34.00
2024-02-13T01:32:48.170Z,31.00
2024-02-13T01:33:48.237Z,31.50
2024-02-13T01:34:48.187Z,39.90
2024-02-13T01:35:48.163Z,30.00
2024-02-13T01:36:48.111Z,37.00
2024-02-13T01:37:48.102Z,34.40
2024-02-13T01:38:48.126Z,35.20
2024-02-13T01:39:48.074Z,46.10
2024-02-13T01:40:48.033Z,33.90
2024-02-13T01:41:48.072Z,41.00
2024-02-13T01:42:48.063Z,35.10
2024-02-13T01:43:47.991Z,40.20
2024-02-13T01:44:48.069Z,28.60
2024-02-13T01:45:47.968Z,40.60
2024-02-13T01:46:47.973Z,47.50
2024-02-13T01:47:48.094Z,30.90
2024-02-13T01:48:48.038Z,35.60
2024-02-13T01:49:47.911Z,47.00
2024-02-13T01:50:47.926Z,39.50
2024-02-13T01:51:47.907Z,31.10
2024-02-13T01:52:47.899Z,44.50
2024-02-13T01:53:47.949Z,41.70
2024-02-13T01:54:47.912Z,36.10
2024-02-13T01:55:47.846Z,37.20
2024-02-13T01:56:47.989Z,33.90
2024-02-13T01:57:47.828Z,40.70
2024-02-13T01:58:47.813Z,17.60
2024-02-13T01:59:47.824Z,35.70
2024-02-13T02:00:47.790Z,40.40
2024-02-13T02:01:47.774Z,40.90
2024-02-13T02:02:47.886Z,25.50
2024-02-13T02:03:47.797Z,26.70
2024-02-13T02:04:47.748Z,20.50
2024-02-13T02:05:47.798Z,33.50
2024-02-13T02:06:47.738Z,31.70
2024-02-13T02:07:47.714Z,28.80
2024-02-13T02:08:47.768Z,21.90
2024-02-13T02:09:47.686Z,46.60
2024-02-13T02:10:47.714Z,38.00
2024-02-13T02:11:47.667Z,33.60
2024-02-13T02:12:47.633Z,40.00
2024-02-13T02:13:47.649Z,38.70
2024-02-13T02:14:47.634Z,35.10
2024-02-13T02:15:47.598Z,20.40
2024-02-13T02:16:47.642Z,33.30
2024-02-13T02:17:47.674Z,22.50
2024-02-13T02:18:47.733Z,28.60
2024-02-13T02:19:47.563Z,35.10
2024-02-13T02:20:47.608Z,32.90
2024-02-13T02:21:47.515Z,36.30
2024-02-13T02:22:47.533Z,27.20
2024-02-13T02:23:47.527Z,31.90
2024-02-13T02:24:47.477Z,33.40
2024-02-13T02:25:47.499Z,25.80
2024-02-13T02:26:47.517Z,17.80
2024-02-13T02:27:47.443Z,21.60
2024-02-13T02:28:47.441Z,25.90
2024-02-13T02:29:47.502Z,36.10
2024-02-13T02:30:47.564Z,25.90
2024-02-13T02:31:47.397Z,24.00
2024-02-13T02:32:47.494Z,27.70
2024-02-13T02:33:48.203Z,41.40
2024-02-13T02:34:47.439Z,38.80
2024-02-13T02:35:47.463Z,39.70
2024-02-13T02:36:47.361Z,30.90
2024-02-13T02:37:47.320Z,25.10
2024-02-13T02:38:47.331Z,21.40
2024-02-13T02:39:47.287Z,21.50
2024-02-13T02:40:47.299Z,35.10
2024-02-13T02:41:47.325Z,38.90
2024-02-13T02:42:47.261Z,27.60
2024-02-13T02:43:47.316Z,26.90
2024-02-13T02:44:47.292Z,19.20
2024-02-13T02:45:47.218Z,24.50
2024-02-13T02:46:47.239Z,37.20
2024-02-13T02:47:47.246Z,37.90
2024-02-13T02:48:47.282Z,18.70
2024-02-13T02:49:47.255Z,27.50
2024-02-13T02:50:47.188Z,31.20
2024-02-13T02:51:47.158Z,23.30
2024-02-13T02:52:47.159Z,26.10
2024-02-13T02:53:47.137Z,34.50
2024-02-13T02:54:47.113Z,25.90
2024-02-13T02:55:47.088Z,27.70
2024-02-13T02:56:47.274Z,29.20
2024-02-13T02:57:47.113Z,33.60
2024-02-13T02:58:47.103Z,29.40
2024-02-13T02:59:47.098Z,27.60
2024-02-13T03:00:47.072Z,27.80
2024-02-13T03:01:47.024Z,32.00
2024-02-13T03:02:47.080Z,28.60
2024-02-13T03:03:47.029Z,25.70
2024-02-13T03:04:47.099Z,27.60
2024-02-13T03:05:47.058Z,33.20
2024-02-13T03:06:47.031Z,37.20
2024-02-13T03:07:47.401Z,33.00
2024-02-13T03:08:47.053Z,20.70
2024-02-13T03:09:46.936Z,27.30
2024-02-13T03:10:46.904Z,33.30
2024-02-13T03:11:46.944Z,39.70
2024-02-13T03:12:46.890Z,30.90
2024-02-13T03:13:46.872Z,23.40
2024-02-13T03:14:46.920Z,19.50
2024-02-13T03:15:46.876Z,33.90
2024-02-13T03:16:46.876Z,23.70
2024-02-13T03:17:46.905Z,28.20
2024-02-13T03:18:46.938Z,32.70
2024-02-13T03:19:46.857Z,37.10
2024-02-13T03:20:46.832Z,19.60
2024-02-13T03:21:46.766Z,18.10
2024-02-13T03:22:46.779Z,31.10
2024-02-13T03:23:46.790Z,40.70
2024-02-13T03:24:46.737Z,22.80
2024-02-13T03:25:46.722Z,35.70
2024-02-13T03:26:46.780Z,39.20
2024-02-13T03:27:46.699Z,22.50
2024-02-13T03:28:46.705Z,24.80
2024-02-13T03:29:46.741Z,39.30
2024-02-13T03:30:46.659Z,19.70
2024-02-13T03:31:46.652Z,36.00
2024-02-13T03:32:46.753Z,31.00
2024-02-13T03:33:46.795Z,31.70
2024-02-13T03:34:46.675Z,29.20
2024-02-13T03:35:46.634Z,25.90
2024-02-13T03:36:46.614Z,36.40
2024-02-13T03:37:46.593Z,29.30
2024-02-13T03:38:46.580Z,34.20
2024-02-13T03:39:46.555Z,28.00
2024-02-13T03:40:46.546Z,26.30
2024-02-13T03:41:46.639Z,32.80
2024-02-13T03:42:46.674Z,33.30
2024-02-13T03:43:46.492Z,18.60
2024-02-13T03:44:46.674Z,24.50
2024-02-13T03:45:46.499Z,35.30
2024-02-13T03:46:46.501Z,24.90
2024-02-13T03:47:46.641Z,22.50
2024-02-13T03:48:46.597Z,28.20
2024-02-13T03:49:46.487Z,27.00
2024-02-13T03:50:46.461Z,31.50
2024-02-13T03:51:46.402Z,16.40
2024-02-13T03:52:46.388Z,28.40
2024-02-13T03:53:46.569Z,30.70
2024-02-13T03:54:46.376Z,22.90
2024-02-13T03:55:46.360Z,28.00
2024-02-13T03:56:46.399Z,28.80
2024-02-13T03:57:46.328Z,25.80
2024-02-13T03:58:46.335Z,15.60
2024-02-13T03:59:46.349Z,18.00
2024-02-13T04:00:46.308Z,31.10
2024-02-13T04:01:46.303Z,26.60
2024-02-13T04:02:46.330Z,29.20
2024-02-13T04:03:46.277Z,26.20
2024-02-13T04:04:46.272Z,27.90
2024-02-13T04:05:46.307Z,20.80
2024-02-13T04:06:46.283Z,27.40
2024-02-13T04:07:46.208Z,17.40
2024-02-13T04:08:46.274Z,24.70
2024-02-13T04:09:46.176Z,33.10
2024-02-13T04:10:46.165Z,22.70
2024-02-13T04:11:46.268Z,32.70
2024-02-13T04:12:46.133Z,33.60
2024-02-13T04:13:46.127Z,21.90
2024-02-13T04:14:46.162Z,26.00
2024-02-13T04:15:46.096Z,19.90
2024-02-13T04:16:47.676Z,23.70
2024-02-13T04:17:47.684Z,26.40
2024-02-13T04:18:46.704Z,29.10
2024-02-13T04:19:46.155Z,22.20
2024-02-13T04:20:46.068Z,18.50
2024-02-13T04:21:47.651Z,21.50
2024-02-13T04:22:46.195Z,25.20
2024-02-13T04:23:46.202Z,23.00
2024-02-13T04:24:47.324Z,26.10
2024-02-13T04:25:46.006Z,18.60
2024-02-13T04:26:47.565Z,23.70
2024-02-13T05:27:54.036Z,39.60
2024-02-13T08:22:54.145Z,14.20
2024-02-13T08:23:00.590Z,17.50
2024-02-13T08:29:39.191Z,8.90
2024-02-13T08:36:22.785Z,11.70
2024-02-13T08:46:16.282Z,9.60
2024-02-13T08:47:17.428Z,10.30
2024-02-13T08:52:40.894Z,12.60
2024-02-13T08:53:41.024Z,13.10
2024-02-13T08:54:40.252Z,6.60
2024-02-13T08:56:18.004Z,8.00
2024-02-13T08:56:40.353Z,11.70
2024-02-13T08:57:40.525Z,9.00
2024-02-13T08:58:40.228Z,14.20
2024-02-13T08:59:41.714Z,8.80
2024-02-13T09:02:08.198Z,13.40
2024-02-13T09:03:09.181Z,14.50
2024-02-13T09:04:09.211Z,9.60
2024-02-13T09:05:09.247Z,8.10
2024-02-13T09:06:09.361Z,12.60
2024-02-13T09:07:09.135Z,9.90
2024-02-13T09:08:09.105Z,8.70
2024-02-13T09:09:20.809Z,13.60
2024-02-13T09:10:09.079Z,12.80
2024-02-13T09:11:09.064Z,9.50
2024-02-13T09:12:09.370Z,7.80
2024-02-13T09:13:09.109Z,8.30
2024-02-13T09:14:09.029Z,11.70
2024-02-13T09:15:09.047Z,13.50
2024-02-13T09:16:11.438Z,9.10
2024-02-13T09:17:09.044Z,8.20
2024-02-13T09:18:09.090Z,13.60
2024-02-13T09:19:09.977Z,6.10
2024-02-13T09:20:08.980Z,9.50
2024-02-13T09:21:08.983Z,11.30
2024-02-13T09:22:08.928Z,13.10
2024-02-13T09:23:08.908Z,9.60
2024-02-13T09:24:12.472Z,10.20
2024-02-13T09:25:08.925Z,10.40
2024-02-13T09:26:08.885Z,12.90
2024-02-13T09:27:08.863Z,9.90
2024-02-13T09:28:08.864Z,10.10
2024-02-13T09:29:08.894Z,10.20
2024-02-13T09:30:08.895Z,14.80
2024-02-13T09:31:08.859Z,7.00
2024-02-13T09:32:09.034Z,9.80
2024-02-13T09:33:08.877Z,12.00
2024-02-13T09:34:08.918Z,10.50
2024-02-13T09:35:09.448Z,11.80
2024-02-13T09:36:08.795Z,6.50
2024-02-13T09:37:08.785Z,8.80
2024-02-13T09:38:08.727Z,13.70
2024-02-13T09:39:08.751Z,13.70
2024-02-13T09:40:08.712Z,9.70
2024-02-13T09:41:08.694Z,7.10
2024-02-13T09:42:08.677Z,8.70
2024-02-13T09:43:08.814Z,10.10
2024-02-13T09:44:08.660Z,9.20
2024-02-13T09:45:08.710Z,10.40
2024-02-13T09:46:08.638Z,12.30
2024-02-13T09:47:08.601Z,8.30
2024-02-13T09:48:08.692Z,10.60
2024-02-13T09:49:08.737Z,10.30
2024-02-13T09:50:14.969Z,9.90
2024-02-13T09:51:08.629Z,12.10
2024-02-13T09:52:08.544Z,7.00
2024-02-13T09:53:08.529Z,12.30
2024-02-13T09:54:08.684Z,6.70
2024-02-13T09:55:08.596Z,12.40
2024-02-13T09:56:08.516Z,8.90
2024-02-13T09:57:08.531Z,8.50
2024-02-13T09:58:08.469Z,8.90
2024-02-13T09:59:08.453Z,13.00
2024-02-13T10:00:08.473Z,9.30
2024-02-13T10:01:08.481Z,8.40
2024-02-13T10:02:08.420Z,13.30
2024-02-13T10:03:08.671Z,10.20
2024-02-13T10:04:08.495Z,10.70
2024-02-13T10:05:10.386Z,10.20
2024-02-13T10:06:09.397Z,8.30
2024-02-13T10:07:08.438Z,10.10
2024-02-13T10:08:08.334Z,8.90
2024-02-13T10:09:08.364Z,10.10
2024-02-13T10:10:08.564Z,10.00
2024-02-13T10:11:08.348Z,9.20
2024-02-13T10:12:08.296Z,10.60
2024-02-13T10:13:08.314Z,8.80
2024-02-13T10:14:08.303Z,10.80
2024-02-13T10:15:08.479Z,7.30
2024-02-13T10:16:08.242Z,10.00
2024-02-13T10:17:08.217Z,10.20
2024-02-13T10:18:08.375Z,15.90
2024-02-13T10:19:08.291Z,10.50
2024-02-13T10:20:08.329Z,14.20
2024-02-13T10:21:08.209Z,12.00
2024-02-13T10:22:08.163Z,8.80
2024-02-13T10:23:08.191Z,9.60
2024-02-13T10:24:08.768Z,8.60
2024-02-13T10:25:08.165Z,8.70
2024-02-13T10:26:08.137Z,9.00
2024-02-13T10:27:08.209Z,7.00
2024-02-13T10:28:08.081Z,8.50
2024-02-13T10:29:08.087Z,11.50
2024-02-13T10:30:08.132Z,14.10
2024-02-13T10:31:08.062Z,12.10
2024-02-13T10:32:08.039Z,10.30
2024-02-13T10:33:08.144Z,8.30
2024-02-13T10:34:08.016Z,9.00
2024-02-13T10:35:08.056Z,9.60
2024-02-13T10:36:08.961Z,9.10
2024-02-13T10:37:07.988Z,7.10
2024-02-13T10:38:34.741Z,8.70
2024-02-13T10:39:08.902Z,10.30
2024-02-13T10:48:54.680Z,10.70
2024-02-13T10:55:58.169Z,7.90
2024-02-13T10:57:16.711Z,7.30
2024-02-13T10:58:27.777Z,9.50
2024-02-13T10:58:59.087Z,10.90
2024-02-13T11:00:11.384Z,10.60
2024-02-13T11:00:59.147Z,11.50
2024-02-13T11:01:59.123Z,6.10
2024-02-13T11:02:59.093Z,8.80
2024-02-13T11:09:31.909Z,10.00
2024-02-13T11:14:09.021Z,8.00
2024-02-13T11:15:10.312Z,7.60
2024-02-13T11:16:10.211Z,7.90
2024-02-13T11:17:17.033Z,7.00
2024-02-13T11:18:10.048Z,9.10
2024-02-13T11:25:04.128Z,9.10
2024-02-13T11:29:30.588Z,7.50
2024-02-13T11:30:37.717Z,7.10
2024-02-13T11:34:39.662Z,9.00
2024-02-13T11:41:08.190Z,9.60
2024-02-13T11:42:09.151Z,8.70
2024-02-13T11:43:09.127Z,14.40
2024-02-13T11:44:09.806Z,9.50
2024-02-13T11:45:09.359Z,9.30
2024-02-13T11:46:09.142Z,7.80
2024-02-13T11:47:09.086Z,8.10
2024-02-13T11:48:12.303Z,8.50
2024-02-13T11:49:09.205Z,10.00
2024-02-13T11:50:09.108Z,7.40
2024-02-13T11:51:09.050Z,7.80
2024-02-13T11:52:09.036Z,9.40
2024-02-13T11:53:08.988Z,8.70
2024-02-13T11:54:39.471Z,7.80
2024-02-13T11:59:23.204Z,9.10
2024-02-13T12:00:27.936Z,10.20
2024-02-13T12:04:39.724Z,6.60
2024-02-13T12:05:06.124Z,7.50
2024-02-13T12:06:00.085Z,6.70
2024-02-13T12:06:45.166Z,6.60
2024-02-13T12:07:45.084Z,7.90
2024-02-13T12:08:45.051Z,7.20
2024-02-13T12:09:45.049Z,8.50
2024-02-13T12:10:45.017Z,5.40
2024-02-13T12:11:45.058Z,8.20
2024-02-13T12:12:45.255Z,7.60
2024-02-13T12:13:45.552Z,5.80
2024-02-13T12:14:45.067Z,7.90
2024-02-13T12:15:44.971Z,5.70
2024-02-13T12:16:44.963Z,9.20
2024-02-13T12:28:16.520Z,6.90
2024-02-13T12:29:19.244Z,9.90
2024-02-13T12:30:18.402Z,7.90
2024-02-13T12:31:17.460Z,8.40
2024-02-13T12:34:19.144Z,7.10
2024-02-13T12:35:27.949Z,3.30
2024-02-13T12:36:15.535Z,6.30
2024-02-13T12:49:13.453Z,7.00
2024-02-13T12:58:10.709Z,9.00
2024-02-13T12:59:07.280Z,8.30
2024-02-13T13:16:59.917Z,6.30
2024-02-13T13:17:05.270Z,8.70
2024-02-13T13:18:16.550Z,6.10
2024-02-13T14:15:17.938Z,6.70
2024-02-13T14:49:42.589Z,5.50
2024-02-13T15:31:31.022Z,4.20
2024-02-13T15:40:24.560Z,7.90
2024-02-13T15:41:46.404Z,7.10
2024-02-13T15:42:43.054Z,11.70
2024-02-13T15:43:25.510Z,6.30
2024-02-13T15:44:46.555Z,6.50
2024-02-13T15:45:25.727Z,4.50
2024-02-13T15:48:13.607Z,5.30
2024-02-13T15:53:30.376Z,5.90
2024-02-13T15:54:57.807Z,6.90
2024-02-13T15:55:31.565Z,7.50
2024-02-13T15:57:51.686Z,6.50
2024-02-13T15:58:52.667Z,6.40
2024-02-13T15:59:52.864Z,8.10
2024-02-13T16:00:53.534Z,7.70
2024-02-13T16:01:52.579Z,7.00
2024-02-13T16:06:23.754Z,6.30
2024-02-13T16:06:43.928Z,7.50
2024-02-13T16:07:44.890Z,6.00
2024-02-13T16:08:44.112Z,7.20
2024-02-13T16:09:30.917Z,5.10
2024-02-13T16:12:17.171Z,5.70
2024-02-13T16:12:22.534Z,6.00
2024-02-13T16:13:30.759Z,9.10
2024-02-13T16:14:46.691Z,9.90
2024-02-13T16:17:12.926Z,5.80
2024-02-13T16:18:22.674Z,5.90
2024-02-13T16:19:15.023Z,6.40
2024-02-13T16:20:14.266Z,5.40
2024-02-13T16:21:13.798Z,4.20
2024-02-13T16:23:15.393Z,7.60
2024-02-13T16:25:02.072Z,8.20
2024-02-13T16:26:04.854Z,5.60
2024-02-13T16:33:49.789Z,5.20
2024-02-13T16:34:46.340Z,7.90
2024-02-13T16:36:57.017Z,6.70
2024-02-13T16:37:57.875Z,6.90
2024-02-13T16:38:57.944Z,8.00
2024-02-13T16:40:18.177Z,6.70
2024-02-13T16:41:02.685Z,5.90
2024-02-13T16:41:58.133Z,8.50
2024-02-13T16:43:00.056Z,7.30
2024-02-13T16:43:59.345Z,9.80
2024-02-13T16:45:01.554Z,7.70
2024-02-13T16:45:59.511Z,5.70
2024-02-13T16:47:21.184Z,9.90
2024-02-13T16:47:57.998Z,9.30
2024-02-13T16:48:57.879Z,9.50
2024-02-13T16:49:57.907Z,7.10
2024-02-13T16:51:24.042Z,6.30
2024-02-13T17:10:46.080Z,8.90
2024-02-13T19:16:17.433Z,9.80
2024-02-13T19:17:18.374Z,10.80
2024-02-13T19:31:43.770Z,5.40
2024-02-13T20:46:43.428Z,7.60
2024-02-13T20:47:17.851Z,9.40
2024-02-13T20:51:46.256Z,6.30
2024-02-13T20:53:52.466Z,9.20
2024-02-13T20:54:09.875Z,6.60
2024-02-13T20:55:42.733Z,7.50
2024-02-13T20:56:25.295Z,6.40
2024-02-13T20:57:01.346Z,7.80
2024-02-13T20:57:57.923Z,8.90
2024-02-13T21:09:09.774Z,7.50
2024-02-13T21:09:15.833Z,8.40
2024-02-13T21:10:15.790Z,4.40
2024-02-13T21:11:29.673Z,6.80
2024-02-13T21:12:22.117Z,5.00
2024-02-13T21:13:15.808Z,6.00
2024-02-13T21:14:15.172Z,6.10
2024-02-13T21:15:16.797Z,6.70
2024-02-13T21:24:05.383Z,8.90
2024-02-13T21:24:15.940Z,9.30
2024-02-13T21:25:15.673Z,8.60
2024-02-13T21:26:22.337Z,5.10
2024-02-13T21:27:22.636Z,5.80
2024-02-13T21:28:16.370Z,6.80
2024-02-13T21:29:15.672Z,6.80
2024-02-13T21:30:16.650Z,9.20
2024-02-13T21:31:16.129Z,7.00
2024-02-13T21:32:18.907Z,6.80
2024-02-13T21:33:16.182Z,5.90
2024-02-13T21:40:03.105Z,6.30
2024-02-13T21:40:15.728Z,8.80
2024-02-13T21:41:10.424Z,8.50
2024-02-13T21:42:12.895Z,11.00
2024-02-13T21:43:08.705Z,8.60
2024-02-13T21:44:08.673Z,8.40
2024-02-13T21:45:08.739Z,6.90
2024-02-13T21:46:09.124Z,5.60
2024-02-13T21:47:09.354Z,7.90
2024-02-13T21:48:15.880Z,6.60
2024-02-13T21:52:55.220Z,5.90
2024-02-13T21:53:01.966Z,7.30
2024-02-13T21:54:01.110Z,6.80
2024-02-13T21:55:00.977Z,8.90
2024-02-13T21:56:00.958Z,8.90
2024-02-13T21:57:01.000Z,10.70
2024-02-13T21:58:00.993Z,7.50
2024-02-13T21:59:07.948Z,6.70
2024-02-13T22:00:00.864Z,8.30
2024-02-13T22:01:00.784Z,10.10
2024-02-13T22:02:00.751Z,9.40
2024-02-13T22:03:00.774Z,8.90
2024-02-13T22:04:02.281Z,10.40
2024-02-13T22:05:00.725Z,7.80
2024-02-13T22:06:04.164Z,6.40
2024-02-13T22:07:12.281Z,8.40
2024-02-13T22:08:00.872Z,8.00
2024-02-13T22:09:00.854Z,6.50
2024-02-13T22:10:03.635Z,7.20
2024-02-13T22:11:00.876Z,6.90
2024-02-13T22:12:01.310Z,8.00
2024-02-13T22:13:01.206Z,4.70
2024-02-13T22:14:00.722Z,6.70
2024-02-13T22:15:00.813Z,8.70
2024-02-13T22:16:05.475Z,6.60
2024-02-13T22:17:00.787Z,10.50
2024-02-13T22:18:00.852Z,8.50
2024-02-13T22:19:00.657Z,7.10
2024-02-13T22:20:00.708Z,8.20
2024-02-13T22:21:00.520Z,6.80
2024-02-13T22:22:00.692Z,6.40
2024-02-13T22:23:00.468Z,7.40
2024-02-13T22:24:00.514Z,4.90
2024-02-13T22:25:00.473Z,5.90
2024-02-13T22:26:00.440Z,6.90
2024-02-13T22:27:00.476Z,9.90
2024-02-13T22:28:02.029Z,6.70
2024-02-13T22:29:01.913Z,8.40
2024-02-13T22:30:01.224Z,8.90
2024-02-13T22:31:00.363Z,7.80
2024-02-13T22:32:00.600Z,8.50
2024-02-13T22:33:00.405Z,6.20
2024-02-13T22:34:00.565Z,7.90
2024-02-13T22:35:00.431Z,7.80
2024-02-13T22:36:00.349Z,7.80
2024-02-13T22:37:00.282Z,7.60
2024-02-13T22:38:00.432Z,5.90
2024-02-13T22:39:00.409Z,6.60
2024-02-13T22:40:00.384Z,7.20
2024-02-13T22:41:00.254Z,6.90
2024-02-13T22:42:01.159Z,5.60
2024-02-13T22:43:00.208Z,6.20
2024-02-13T22:44:00.187Z,5.60
2024-02-13T22:45:00.465Z,6.90
2024-02-13T22:46:00.195Z,4.40
2024-02-13T22:47:00.182Z,4.80
2024-02-13T22:48:00.382Z,5.60
2024-02-13T22:49:00.172Z,5.60
2024-02-13T22:50:00.258Z,4.80
2024-02-13T22:51:00.390Z,7.40
2024-02-13T22:52:00.138Z,6.20
2024-02-13T22:53:00.285Z,6.10
2024-02-13T22:54:00.332Z,8.20
2024-02-13T22:55:03.411Z,5.60
2024-02-13T22:56:00.039Z,6.40
2024-02-13T22:57:00.393Z,5.60
2024-02-13T22:58:00.782Z,4.80
2024-02-13T22:59:00.237Z,6.00
2024-02-13T23:00:07.020Z,8.70
2024-02-13T23:01:00.010Z,3.90
2024-02-13T23:02:00.669Z,6.30
2024-02-13T23:03:00.001Z,8.50
2024-02-13T23:03:59.961Z,4.70
2024-02-13T23:04:59.957Z,5.70
2024-02-13T23:06:00.640Z,7.70
2024-02-13T23:07:00.666Z,7.00
2024-02-13T23:08:00.104Z,6.30
2024-02-13T23:09:00.061Z,5.80
2024-02-13T23:09:59.863Z,9.90
2024-02-13T23:11:00.571Z,4.90
2024-02-13T23:11:59.899Z,7.90
2024-02-13T23:13:00.080Z,7.20
2024-02-13T23:13:59.838Z,5.30
2024-02-13T23:15:02.904Z,5.10
2024-02-13T23:16:00.122Z,8.20
2024-02-13T23:17:00.038Z,7.20
2024-02-13T23:17:59.870Z,5.60
2024-02-13T23:19:00.064Z,6.50
2024-02-13T23:19:59.804Z,6.00
2024-02-13T23:20:59.765Z,11.80
2024-02-13T23:21:59.725Z,6.30
2024-02-13T23:22:59.726Z,6.30
2024-02-13T23:23:59.745Z,5.80
2024-02-13T23:24:59.709Z,6.20
2024-02-13T23:25:59.663Z,6.50
2024-02-13T23:26:59.692Z,7.60
2024-02-13T23:27:59.650Z,7.80
2024-02-13T23:28:59.901Z,8.60
2024-02-13T23:29:59.932Z,6.50
2024-02-13T23:30:59.627Z,6.90
2024-02-13T23:31:59.608Z,7.20
2024-02-13T23:32:59.661Z,5.80
2024-02-13T23:33:59.955Z,8.00
2024-02-13T23:34:59.657Z,9.10
2024-02-13T23:35:59.571Z,4.90
2024-02-13T23:36:59.534Z,7.40
2024-02-13T23:37:59.523Z,5.50
2024-02-13T23:38:59.530Z,7.10
2024-02-13T23:39:59.477Z,7.00
2024-02-13T23:40:59.486Z,5.80
2024-02-13T23:41:59.522Z,6.30
2024-02-13T23:42:59.443Z,5.70
2024-02-13T23:43:59.458Z,8.30
2024-02-13T23:44:59.536Z,7.50
2024-02-13T23:45:59.426Z,8.20
2024-02-13T23:46:59.408Z,6.90
2024-02-13T23:47:59.445Z,6.30
2024-02-13T23:59:58.732Z,6.90
